createdAt,value
2022-09-01T00:00:29.276Z,97678.47
2022-09-01T00:02:58.375Z,97679.19
2022-09-01T00:05:29.413Z,97675.50
2022-09-01T00:08:01.921Z,97676.84
2022-09-01T00:10:33.359Z,97674.84
2022-09-01T00:13:04.581Z,97672.91
2022-09-01T00:15:35.430Z,97672.59
2022-09-01T00:18:04.590Z,97671.75
2022-09-01T00:20:34.435Z,97681.13
2022-09-01T00:23:03.452Z,97676.41
2022-09-01T00:25:32.449Z,97672.19
2022-09-01T00:28:05.247Z,97670.44
2022-09-01T00:30:37.553Z,97672.72
2022-09-01T00:33:06.897Z,97669.44
2022-09-01T00:35:38.249Z,97664.97
2022-09-01T00:38:07.614Z,97672.44
2022-09-01T00:40:42.216Z,97669.22
2022-09-01T00:43:17.053Z,97669.06
2022-09-01T00:45:47.596Z,97677.19
2022-09-01T00:48:17.400Z,97666.56
2022-09-01T00:50:47.273Z,97674.38
2022-09-01T00:53:20.226Z,97677.28
2022-09-01T00:55:49.788Z,97668.16
2022-09-01T00:58:19.944Z,97669.09
2022-09-01T01:00:53.055Z,97669.06
2022-09-01T01:03:24.154Z,97665.00
2022-09-01T01:05:58.172Z,97663.47
2022-09-01T01:08:34.221Z,97666.66
2022-09-01T01:11:06.594Z,97669.03
2022-09-01T01:13:51.217Z,97667.09
2022-09-01T01:16:23.297Z,97667.75
2022-09-01T01:18:53.565Z,97662.28
2022-09-01T01:21:49.231Z,97661.31
2022-09-01T01:24:26.683Z,97665.22
2022-09-01T01:26:57.580Z,97668.47
2022-09-01T01:29:27.520Z,97660.97
2022-09-01T01:31:57.138Z,97659.56
2022-09-01T01:34:26.511Z,97660.97
2022-09-01T01:37:00.639Z,97666.41
2022-09-01T01:39:33.157Z,97660.47
2022-09-01T01:42:02.295Z,97665.44
2022-09-01T01:44:32.370Z,97661.59
2022-09-01T01:47:03.892Z,97665.09
2022-09-01T01:49:35.310Z,97665.44
2022-09-01T01:52:06.174Z,97659.75
2022-09-01T01:54:39.102Z,97663.13
2022-09-01T01:57:08.862Z,97648.66
2022-09-01T01:59:40.970Z,97658.09
2022-09-01T02:02:13.057Z,97661.66
2022-09-01T02:04:43.957Z,97668.19
2022-09-01T02:07:18.135Z,97660.59
2022-09-01T02:09:51.132Z,97660.56
2022-09-01T02:12:21.644Z,97663.38
2022-09-01T02:14:54.469Z,97666.50
2022-09-01T02:17:29.162Z,97660.03
2022-09-01T02:19:58.457Z,97653.38
2022-09-01T02:22:28.763Z,97655.25
2022-09-01T02:25:02.162Z,97655.41
2022-09-01T02:27:39.854Z,97658.44
2022-09-01T02:30:13.788Z,97658.84
2022-09-01T02:32:43.426Z,97647.56
2022-09-01T02:35:17.949Z,97661.81
2022-09-01T02:37:51.724Z,97664.59
2022-09-01T02:40:23.985Z,97649.28
2022-09-01T02:42:55.497Z,97658.25
2022-09-01T02:45:24.869Z,97652.88
2022-09-01T02:47:56.161Z,97646.50
2022-09-01T02:50:27.016Z,97647.25
2022-09-01T02:52:56.070Z,97649.44
2022-09-01T02:55:26.522Z,97653.47
2022-09-01T02:57:57.218Z,97655.47
2022-09-01T03:00:31.525Z,97647.13
2022-09-01T03:03:02.547Z,97646.25
2022-09-01T03:05:34.646Z,97646.25
2022-09-01T03:08:07.543Z,97646.41
2022-09-01T03:10:41.717Z,97649.25
2022-09-01T03:13:15.728Z,97654.41
2022-09-01T03:15:45.709Z,97638.16
2022-09-01T03:18:16.411Z,97638.63
2022-09-01T03:20:53.218Z,97642.00
2022-09-01T03:23:25.337Z,97642.16
2022-09-01T03:25:58.698Z,97638.03
2022-09-01T03:28:28.230Z,97638.97
2022-09-01T03:30:59.691Z,97631.34
2022-09-01T03:33:32.574Z,97636.19
2022-09-01T03:36:02.300Z,97638.03
2022-09-01T03:38:32.230Z,97634.38
2022-09-01T03:41:06.867Z,97628.31
2022-09-01T03:43:36.636Z,97630.09
2022-09-01T03:46:09.956Z,97625.34
2022-09-01T03:48:44.558Z,97628.09
2022-09-01T03:51:14.700Z,97625.31
2022-09-01T03:53:45.404Z,97623.59
2022-09-01T03:56:16.787Z,97630.09
2022-09-01T03:58:47.443Z,97632.84
2022-09-01T04:01:20.248Z,97624.50
2022-09-01T04:03:52.405Z,97631.41
2022-09-01T04:06:26.216Z,97628.94
2022-09-01T04:09:03.284Z,97623.97
2022-09-01T04:11:36.355Z,97627.28
2022-09-01T04:14:05.506Z,97625.81
2022-09-01T04:17:03.539Z,97628.25
2022-09-01T04:19:41.545Z,97626.00
2022-09-01T04:22:13.587Z,97622.47
2022-09-01T04:24:46.146Z,97623.53
2022-09-01T04:27:21.918Z,97625.81
2022-09-01T04:29:51.896Z,97624.56
2022-09-01T04:32:24.489Z,97623.06
2022-09-01T04:34:53.405Z,97614.97
2022-09-01T04:37:24.431Z,97621.53
2022-09-01T04:39:57.367Z,97614.19
2022-09-01T04:42:34.166Z,97615.53
2022-09-01T04:45:10.651Z,97614.91
2022-09-01T04:47:42.275Z,97608.47
2022-09-01T04:50:17.240Z,97609.47
2022-09-01T04:52:48.892Z,97603.88
2022-09-01T04:55:18.567Z,97609.34
2022-09-01T04:57:54.920Z,97606.19
2022-09-01T05:00:25.978Z,97613.63
2022-09-01T05:03:03.445Z,97606.81
2022-09-01T05:05:43.437Z,97606.91
2022-09-01T05:08:18.066Z,97612.03
2022-09-01T05:10:59.488Z,97611.03
2022-09-01T05:13:29.946Z,97607.69
2022-09-01T05:16:06.559Z,97612.22
2022-09-01T05:18:36.549Z,97618.13
2022-09-01T05:21:11.233Z,97624.69
2022-09-01T05:23:41.291Z,97610.19
2022-09-01T05:26:17.184Z,97619.97
2022-09-01T05:28:49.082Z,97611.72
2022-09-01T05:31:19.980Z,97608.53
2022-09-01T05:33:53.072Z,97604.47
2022-09-01T05:36:25.855Z,97607.38
2022-09-01T05:38:55.204Z,97602.56
2022-09-01T05:41:24.747Z,97603.81
2022-09-01T05:44:00.789Z,97598.84
2022-09-01T05:46:30.437Z,97605.22
2022-09-01T05:49:00.197Z,97605.94
2022-09-01T05:51:50.839Z,97594.88
2022-09-01T05:54:25.942Z,97594.22
2022-09-01T05:56:55.831Z,97595.91
2022-09-01T05:59:41.208Z,97592.09
2022-09-01T06:02:10.411Z,97598.19
2022-09-01T06:04:44.445Z,97604.06
2022-09-01T06:07:16.298Z,97606.09
2022-09-01T06:09:49.025Z,97602.84
2022-09-01T06:12:20.598Z,97610.34
2022-09-01T06:14:54.506Z,97618.53
2022-09-01T06:17:26.611Z,97614.63
2022-09-01T06:19:57.432Z,97614.84
2022-09-01T06:22:28.564Z,97617.34
2022-09-01T06:25:02.653Z,97616.31
2022-09-01T06:27:31.918Z,97611.19
2022-09-01T06:30:03.068Z,97608.16
2022-09-01T06:32:34.597Z,97611.50
2022-09-01T06:35:07.085Z,97611.19
2022-09-01T06:37:38.321Z,97616.91
2022-09-01T06:40:10.778Z,97627.19
2022-09-01T06:42:41.524Z,97621.06
2022-09-01T06:45:15.081Z,97614.72
2022-09-01T06:47:45.807Z,97615.19
2022-09-01T06:51:14.537Z,97614.25
2022-09-01T06:56:00.883Z,97623.41
2022-09-01T06:58:31.248Z,97626.44
2022-09-01T07:01:08.464Z,97637.44
2022-09-01T07:03:40.265Z,97637.28
2022-09-01T07:06:59.115Z,97639.53
2022-09-01T07:17:31.784Z,97650.09
2022-09-01T07:23:06.439Z,97658.97
2022-09-01T07:28:37.650Z,97659.75
2022-09-01T07:39:48.578Z,97665.19
2022-09-01T07:45:28.468Z,97672.03
2022-09-01T07:48:03.766Z,97663.34
2022-09-01T07:51:34.758Z,97670.84
2022-09-01T07:53:31.521Z,97666.72
2022-09-01T07:56:09.578Z,97662.44
2022-09-01T07:58:44.098Z,97669.78
2022-09-01T08:01:17.369Z,97670.97
2022-09-01T08:04:02.427Z,97666.13
2022-09-01T08:06:41.360Z,97661.25
2022-09-01T08:09:11.912Z,97664.00
2022-09-01T08:12:02.874Z,97670.41
2022-09-01T08:14:34.245Z,97664.28
2022-09-01T08:19:57.792Z,97667.69
2022-09-01T08:22:28.683Z,97672.25
2022-09-01T08:25:00.220Z,97665.22
2022-09-01T08:27:29.355Z,97669.94
2022-09-01T08:30:01.455Z,97681.53
2022-09-01T08:32:32.545Z,97676.50
2022-09-01T08:35:02.129Z,97678.19
2022-09-01T08:37:32.766Z,97676.50
2022-09-01T08:40:04.021Z,97682.00
2022-09-01T08:42:54.638Z,97681.38
2022-09-01T08:45:30.091Z,97680.47
2022-09-01T08:48:37.151Z,97682.91
2022-09-01T08:51:14.898Z,97687.19
2022-09-01T08:53:54.296Z,97672.84
2022-09-01T08:56:25.443Z,97681.22
2022-09-01T08:58:54.622Z,97675.28
2022-09-01T09:01:33.782Z,97672.97
2022-09-01T09:04:20.005Z,97671.94
2022-09-01T09:06:58.163Z,97662.44
2022-09-01T09:09:39.595Z,97655.75
2022-09-01T09:12:34.226Z,97662.78
2022-09-01T09:15:19.209Z,97653.00
2022-09-01T09:18:00.445Z,97656.00
2022-09-01T09:20:30.333Z,97658.03
2022-09-01T09:22:59.910Z,97654.34
2022-09-01T09:25:34.233Z,97660.03
2022-09-01T09:28:03.946Z,97656.00
2022-09-01T09:30:33.606Z,97659.38
2022-09-01T09:33:44.268Z,97655.09
2022-09-01T09:35:57.693Z,97660.28
2022-09-01T09:38:33.309Z,97657.66
2022-09-01T09:41:26.866Z,97653.06
2022-09-01T09:44:01.747Z,97648.63
2022-09-01T09:46:40.575Z,97650.88
2022-09-01T09:49:34.362Z,97646.72
2022-09-01T09:52:19.759Z,97644.56
2022-09-01T09:55:05.676Z,97641.88
2022-09-01T09:57:41.706Z,97643.63
2022-09-01T10:00:25.908Z,97636.91
2022-09-01T10:03:00.006Z,97637.38
2022-09-01T10:05:54.272Z,97627.19
2022-09-01T10:08:48.218Z,97629.97
2022-09-01T10:11:36.243Z,97629.31
2022-09-01T10:14:35.481Z,97627.69
2022-09-01T10:17:16.414Z,97623.94
2022-09-01T10:19:54.297Z,97629.94
2022-09-01T10:22:25.162Z,97627.88
2022-09-01T10:24:54.242Z,97628.72
2022-09-01T10:27:26.329Z,97629.72
2022-09-01T10:30:14.130Z,97636.78
2022-09-01T10:32:56.118Z,97623.72
2022-09-01T10:35:30.050Z,97628.75
2022-09-01T10:38:02.068Z,97630.75
2022-09-01T10:40:49.153Z,97623.47
2022-09-01T10:43:44.280Z,97634.13
2022-09-01T10:46:50.197Z,97632.22
2022-09-01T10:49:51.693Z,97636.97
2022-09-01T10:53:09.943Z,97633.56
2022-09-01T10:55:46.625Z,97629.03
2022-09-01T11:02:34.667Z,97641.63
2022-09-01T11:05:19.928Z,97633.69
2022-09-01T11:08:14.924Z,97639.44
2022-09-01T11:10:53.248Z,97640.38
2022-09-01T11:13:39.251Z,97646.03
2022-09-01T11:16:47.793Z,97642.13
2022-09-01T11:20:06.959Z,97650.38
2022-09-01T11:22:40.413Z,97640.94
2022-09-01T11:25:43.900Z,97637.41
2022-09-01T11:28:44.752Z,97644.19
2022-09-01T11:31:41.166Z,97641.50
2022-09-01T11:34:16.260Z,97645.84
2022-09-01T11:37:01.441Z,97632.91
2022-09-01T11:39:41.737Z,97638.47
2022-09-01T11:42:22.019Z,97640.81
2022-09-01T11:44:58.241Z,97637.22
2022-09-01T11:47:31.815Z,97641.03
2022-09-01T11:50:05.550Z,97634.25
2022-09-01T11:52:41.555Z,97639.34
2022-09-01T11:55:13.603Z,97632.50
2022-09-01T11:57:43.166Z,97634.97
2022-09-01T12:00:28.165Z,97639.75
2022-09-01T12:02:57.278Z,97633.25
2022-09-01T12:05:33.397Z,97633.22
2022-09-01T12:08:14.134Z,97639.53
2022-09-01T12:10:45.499Z,97632.72
2022-09-01T12:13:24.540Z,97634.53
2022-09-01T12:16:18.467Z,97632.97
2022-09-01T12:18:51.497Z,97639.03
2022-09-01T12:21:24.792Z,97641.97
2022-09-01T12:23:56.677Z,97638.16
2022-09-01T12:26:31.236Z,97642.94
2022-09-01T12:29:00.499Z,97650.25
2022-09-01T12:31:39.170Z,97636.59
2022-09-01T12:34:28.704Z,97644.50
2022-09-01T12:37:11.340Z,97633.50
2022-09-01T12:39:45.566Z,97638.19
2022-09-01T12:42:27.513Z,97644.38
2022-09-01T12:44:59.863Z,97630.84
2022-09-01T12:47:50.838Z,97635.94
2022-09-01T12:50:48.168Z,97631.97
2022-09-01T12:53:24.562Z,97633.41
2022-09-01T12:56:18.411Z,97635.03
2022-09-01T12:58:54.819Z,97636.53
2022-09-01T13:01:31.705Z,97633.00
2022-09-01T13:04:12.689Z,97632.00
2022-09-01T13:06:42.042Z,97641.22
2022-09-01T13:09:11.321Z,97635.75
2022-09-01T13:14:31.907Z,97644.91
2022-09-01T13:17:01.120Z,97639.19
2022-09-01T13:19:30.577Z,97643.69
2022-09-01T13:22:00.202Z,97642.16
2022-09-01T13:24:31.563Z,97634.31
2022-09-01T13:29:52.766Z,97637.72
2022-09-01T13:32:23.981Z,97638.75
2022-09-01T13:34:55.265Z,97639.69
2022-09-01T13:37:25.540Z,97639.25
2022-09-01T13:39:54.733Z,97641.22
2022-09-01T13:42:28.947Z,97634.19
2022-09-01T13:44:58.447Z,97639.41
2022-09-01T13:47:29.473Z,97636.72
2022-09-01T13:50:10.424Z,97646.19
2022-09-01T13:52:42.768Z,97643.09
2022-09-01T13:55:16.745Z,97638.28
2022-09-01T13:57:52.660Z,97636.91
2022-09-01T14:00:29.420Z,97635.25
2022-09-01T14:03:06.173Z,97639.66
2022-09-01T14:05:40.961Z,97633.31
2022-09-01T14:08:12.184Z,97637.78
2022-09-01T14:10:44.097Z,97636.53
2022-09-01T14:13:15.663Z,97642.78
2022-09-01T14:15:47.207Z,97641.94
2022-09-01T14:18:19.507Z,97647.03
2022-09-01T14:20:53.947Z,97645.31
2022-09-01T14:23:23.562Z,97651.75
2022-09-01T14:25:53.145Z,97641.50
2022-09-01T14:28:24.602Z,97644.56
2022-09-01T14:33:27.377Z,97650.66
2022-09-01T14:35:56.657Z,97651.25
2022-09-01T14:38:26.079Z,97639.56
2022-09-01T14:40:55.252Z,97647.19
2022-09-01T14:43:26.691Z,97647.03
2022-09-01T14:46:06.681Z,97650.69
2022-09-01T14:48:36.487Z,97650.38
2022-09-01T14:51:06.979Z,97646.44
2022-09-01T14:53:44.481Z,97652.81
2022-09-01T14:56:13.647Z,97649.22
2022-09-01T14:58:47.026Z,97648.53
2022-09-01T15:01:33.259Z,97653.44
2022-09-01T15:04:03.653Z,97650.53
2022-09-01T15:06:34.059Z,97649.34
2022-09-01T15:09:03.724Z,97646.75
2022-09-01T15:11:32.972Z,97659.88
2022-09-01T15:14:06.848Z,97649.94
2022-09-01T15:16:39.640Z,97650.91
2022-09-01T15:19:12.241Z,97654.34
2022-09-01T15:21:44.950Z,97650.69
2022-09-01T15:24:14.681Z,97640.03
2022-09-01T15:26:44.497Z,97642.78
2022-09-01T15:29:15.342Z,97649.16
2022-09-01T15:31:46.143Z,97644.88
2022-09-01T15:34:18.285Z,97651.94
2022-09-01T15:36:47.723Z,97657.44
2022-09-01T15:39:16.925Z,97652.88
2022-09-01T15:41:47.984Z,97651.47
2022-09-01T15:44:20.999Z,97652.22
2022-09-01T15:46:50.871Z,97645.16
2022-09-01T15:49:20.392Z,97643.22
2022-09-01T15:51:49.733Z,97653.69
2022-09-01T15:54:21.445Z,97655.84
2022-09-01T15:56:50.593Z,97646.53
2022-09-01T15:59:23.416Z,97652.63
2022-09-01T16:01:54.082Z,97655.50
2022-09-01T16:04:27.573Z,97657.03
2022-09-01T16:06:59.015Z,97655.69
2022-09-01T16:09:29.224Z,97661.22
2022-09-01T16:12:00.726Z,97657.47
2022-09-01T16:14:33.301Z,97657.03
2022-09-01T16:17:08.036Z,97658.44
2022-09-01T16:19:51.703Z,97657.59
2022-09-01T16:22:26.967Z,97657.19
2022-09-01T16:25:03.858Z,97665.66
2022-09-01T16:27:37.855Z,97660.59
2022-09-01T16:30:11.840Z,97664.59
2022-09-01T16:32:46.598Z,97657.38
2022-09-01T16:35:19.925Z,97665.84
2022-09-01T16:37:57.905Z,97673.56
2022-09-01T16:40:42.979Z,97666.50
2022-09-01T16:43:21.055Z,97662.75
2022-09-01T16:46:00.651Z,97660.88
2022-09-01T16:48:41.960Z,97667.97
2022-09-01T16:51:22.224Z,97664.94
2022-09-01T16:54:14.878Z,97660.66
2022-09-01T16:56:54.499Z,97672.97
2022-09-01T16:59:33.908Z,97670.00
2022-09-01T17:02:22.665Z,97671.44
2022-09-01T17:05:01.859Z,97674.66
2022-09-01T17:07:40.045Z,97675.66
2022-09-01T17:10:20.799Z,97683.00
2022-09-01T17:12:56.133Z,97679.22
2022-09-01T17:15:40.820Z,97682.34
2022-09-01T17:18:22.591Z,97691.22
2022-09-01T17:20:58.554Z,97693.22
2022-09-01T17:23:34.679Z,97686.16
2022-09-01T17:26:10.607Z,97700.25
2022-09-01T17:28:47.344Z,97693.19
2022-09-01T17:31:30.276Z,97699.94
2022-09-01T17:34:14.783Z,97705.72
2022-09-01T17:36:55.488Z,97700.09
2022-09-01T17:39:38.364Z,97705.69
2022-09-01T17:42:18.828Z,97700.03
2022-09-01T17:44:56.264Z,97705.88
2022-09-01T17:47:38.196Z,97714.59
2022-09-01T17:50:19.138Z,97712.16
2022-09-01T17:53:03.356Z,97715.50
2022-09-01T17:55:49.859Z,97719.16
2022-09-01T17:58:40.969Z,97727.75
2022-09-01T18:01:19.519Z,97727.28
2022-09-01T18:04:28.030Z,97723.63
2022-09-01T18:07:10.752Z,97736.28
2022-09-01T18:09:47.203Z,97736.00
2022-09-01T18:12:27.202Z,97743.94
2022-09-01T18:15:09.056Z,97745.44
2022-09-01T18:17:43.424Z,97742.22
2022-09-01T18:20:19.328Z,97750.97
2022-09-01T18:23:06.607Z,97754.34
2022-09-01T18:25:41.781Z,97753.25
2022-09-01T18:28:11.516Z,97761.78
2022-09-01T18:30:54.421Z,97763.59
2022-09-01T18:33:30.333Z,97767.13
2022-09-01T18:36:18.334Z,97773.56
2022-09-01T18:38:58.674Z,97769.91
2022-09-01T18:41:41.717Z,97766.88
2022-09-01T18:44:28.136Z,97769.28
2022-09-01T18:47:06.031Z,97776.63
2022-09-01T18:49:48.302Z,97775.25
2022-09-01T18:52:43.151Z,97775.72
2022-09-01T18:55:22.462Z,97764.72
2022-09-01T18:57:56.378Z,97774.78
2022-09-01T19:00:32.090Z,97776.00
2022-09-01T19:03:19.963Z,97773.41
2022-09-01T19:06:19.345Z,97766.41
2022-09-01T19:09:03.703Z,97771.88
2022-09-01T19:11:56.573Z,97769.47
2022-09-01T19:14:34.887Z,97779.06
2022-09-01T19:17:26.677Z,97783.03
2022-09-01T19:20:01.560Z,97781.19
2022-09-01T19:22:40.985Z,97780.44
2022-09-01T19:25:30.764Z,97774.34
2022-09-01T19:28:11.121Z,97771.44
2022-09-01T19:30:48.269Z,97773.56
2022-09-01T19:33:26.423Z,97777.84
2022-09-01T19:35:59.548Z,97781.34
2022-09-01T19:38:34.421Z,97781.81
2022-09-01T19:41:11.647Z,97781.34
2022-09-01T19:43:43.094Z,97777.22
2022-09-01T19:46:25.068Z,97787.91
2022-09-01T19:48:59.506Z,97792.19
2022-09-01T19:51:35.704Z,97791.28
2022-09-01T19:54:16.205Z,97788.84
2022-09-01T19:56:54.884Z,97796.00
2022-09-01T19:59:36.316Z,97799.81
2022-09-01T20:02:15.829Z,97795.25
2022-09-01T20:04:53.637Z,97802.28
2022-09-01T20:07:34.993Z,97793.13
2022-09-01T20:10:18.897Z,97804.41
2022-09-01T20:12:57.220Z,97804.25
2022-09-01T20:15:35.046Z,97799.53
2022-09-01T20:18:09.677Z,97800.72
2022-09-01T20:20:44.960Z,97800.47
2022-09-01T20:23:25.798Z,97800.72
2022-09-01T20:26:00.098Z,97790.81
2022-09-01T20:28:43.049Z,97801.97
2022-09-01T20:31:23.012Z,97790.19
2022-09-01T20:33:58.830Z,97796.13
2022-09-01T20:36:36.173Z,97791.88
2022-09-01T20:39:29.845Z,97792.97
2022-09-01T20:42:05.973Z,97797.69
2022-09-01T20:44:43.456Z,97799.84
2022-09-01T20:47:16.230Z,97800.59
2022-09-01T20:49:45.814Z,97801.63
2022-09-01T20:52:23.344Z,97797.94
2022-09-01T20:54:58.066Z,97801.75
2022-09-01T20:57:41.240Z,97799.38
2022-09-01T21:00:24.412Z,97800.09
2022-09-01T21:03:12.016Z,97799.78
2022-09-01T21:05:55.885Z,97806.53
2022-09-01T21:08:44.458Z,97811.69
2022-09-01T21:11:30.303Z,97804.81
2022-09-01T21:14:13.872Z,97802.84
2022-09-01T21:16:56.966Z,97801.16
2022-09-01T21:19:40.544Z,97808.78
2022-09-01T21:22:13.126Z,97805.91
2022-09-01T21:24:43.640Z,97802.22
2022-09-01T21:27:17.801Z,97796.13
2022-09-01T21:29:58.997Z,97800.84
2022-09-01T21:32:30.495Z,97791.25
2022-09-01T21:35:01.973Z,97797.94
2022-09-01T21:37:31.562Z,97796.25
2022-09-01T21:40:03.243Z,97798.28
2022-09-01T21:42:39.221Z,97787.38
2022-09-01T21:45:15.230Z,97791.34
2022-09-01T21:47:47.385Z,97792.78
2022-09-01T21:50:20.469Z,97792.41
2022-09-01T21:52:49.836Z,97793.22
2022-09-01T21:55:22.895Z,97787.72
2022-09-01T21:57:53.898Z,97791.13
2022-09-01T22:00:28.055Z,97782.97
2022-09-01T22:02:59.500Z,97783.06
2022-09-01T22:05:31.216Z,97782.44
2022-09-01T22:08:01.642Z,97778.19
2022-09-01T22:10:32.334Z,97783.31
2022-09-01T22:13:04.109Z,97771.72
2022-09-01T22:15:33.215Z,97782.38
2022-09-01T22:18:02.365Z,97778.34
2022-09-01T22:20:32.935Z,97778.69
2022-09-01T22:23:02.932Z,97765.81
2022-09-01T22:25:34.357Z,97776.91
2022-09-01T22:28:06.499Z,97764.78
2022-09-01T22:30:36.260Z,97768.75
2022-09-01T22:33:07.836Z,97772.13
2022-09-01T22:35:43.274Z,97771.53
2022-09-01T22:38:12.668Z,97773.19
2022-09-01T22:40:46.850Z,97760.28
2022-09-01T22:43:19.744Z,97768.22
2022-09-01T22:45:53.189Z,97755.44
2022-09-01T22:48:24.973Z,97754.06
2022-09-01T22:50:59.033Z,97757.69
2022-09-01T22:53:31.365Z,97754.50
2022-09-01T22:56:01.552Z,97753.63
2022-09-01T22:58:33.802Z,97759.78
2022-09-01T23:01:04.100Z,97754.31
2022-09-01T23:03:33.619Z,97755.69
2022-09-01T23:06:27.401Z,97749.06
2022-09-01T23:08:59.344Z,97755.41
2022-09-01T23:11:29.676Z,97760.06
2022-09-01T23:13:59.520Z,97757.13
2022-09-01T23:16:29.186Z,97760.53
2022-09-01T23:18:59.344Z,97760.34
2022-09-01T23:21:36.238Z,97755.28
2022-09-01T23:24:08.919Z,97756.09
2022-09-01T23:26:39.992Z,97755.34
2022-09-01T23:29:10.392Z,97756.06
2022-09-01T23:31:41.345Z,97758.91
2022-09-01T23:34:13.448Z,97755.66
2022-09-01T23:36:44.724Z,97755.91
2022-09-01T23:39:14.113Z,97749.06
2022-09-01T23:41:47.989Z,97750.25
2022-09-01T23:44:18.017Z,97743.59
2022-09-01T23:46:49.001Z,97747.59
2022-09-01T23:49:19.989Z,97745.25
2022-09-01T23:51:54.834Z,97742.28
2022-09-01T23:54:24.512Z,97744.09
2022-09-01T23:56:54.147Z,97743.34
2022-09-01T23:59:27.652Z,97753.44
